• Join FlightAware (Why Join?)
  • Login
  • US Flag 
08:34AM EDT


 

Airport Tracker/Info


-or-


 

Live Flight TrackerFlight Track Log ✈ FIN666 ✈ 26-Dec-2013 ✈ EKCH / CPH - EFHK / HEL

Flight Track Log - Related Links

Times and Time Zones

All times are in EST time to prevent confusion due to time zone crossing. See the FIN666 flight status page for this flight to view local times or setup timezone preferences in your user account.

Time Position Orientation Groundspeed Altitude Reporting Facility
EST Latitude Longitude Course Direction KTS MPH feet Rate Location/Type
07:27AM 55.8556 13.1474 49° Northeast  Level Estimated
07:28AM 55.9343 13.3125 50° Northeast  Level Estimated
07:29AM 56.0129 13.4784 50° Northeast  Level Estimated
07:30AM 56.0963 13.6556 50° Northeast  Level Estimated
07:31AM 56.1794 13.8337 50° Northeast  Level Estimated
07:32AM 56.2623 14.0125 50° Northeast  Level Estimated
07:33AM 56.3449 14.1920 50° Northeast  Level Estimated
07:34AM 56.4272 14.3724 50° Northeast  Level Estimated
07:35AM 56.5093 14.5535 51° Northeast  Level Estimated
07:36AM 56.5912 14.7354 51° Northeast  Level Estimated
07:37AM 56.6727 14.9181 51° Northeast  Level Estimated
07:38AM 56.7540 15.1016 51° Northeast  Level Estimated
07:39AM 56.8350 15.2859 51° Northeast  Level Estimated
07:40AM 56.9145 15.4681 51° Northeast  Level Estimated
07:41AM 56.9937 15.6510 51° Northeast  Level Estimated
07:42AM 57.0726 15.8347 52° Northeast  Level Estimated
07:43AM 57.1513 16.0192 52° Northeast  Level Estimated
07:44AM 57.2297 16.2044 52° Northeast  Level Estimated
07:45AM 57.3078 16.3905 52° Northeast  Level Estimated
07:46AM 57.3856 16.5773 52° Northeast  Level Estimated
07:47AM 57.4632 16.7650 52° Northeast  Level Estimated
07:48AM 57.5405 16.9534 53° Northeast  Level Estimated
07:49AM 57.6175 17.1426 53° Northeast  Level Estimated
07:50AM 57.6942 17.3327 53° Northeast  Level Estimated
07:51AM 57.7706 17.5235 53° Northeast  Level Estimated
07:52AM 57.8467 17.7152 53° Northeast  Level Estimated
07:53AM 57.9226 17.9076 53° Northeast  Level Estimated
07:54AM 57.9981 18.1009 54° Northeast  Level Estimated
07:55AM 58.0734 18.2950 54° Northeast  Level Estimated
07:56AM 58.1484 18.4899 54° Northeast  Level Estimated
07:57AM 58.2230 18.6856 54° Northeast  Level Estimated
07:58AM 58.2974 18.8822 54° Northeast  Level Estimated
07:59AM 58.3715 19.0795 54° Northeast  Level Estimated
08:00AM 58.4452 19.2778 55° Northeast  Level Estimated
08:01AM 58.5187 19.4768 55° Northeast  Level Estimated
08:02AM 58.5918 19.6767 55° Northeast  Level Estimated
08:03AM 58.6647 19.8774 55° Northeast  Level Estimated
08:04AM 58.7372 20.0789 55° Northeast  Level Estimated
08:05AM 58.8094 20.2813 55° Northeast  Level Estimated
08:06AM 58.8813 20.4845 56° Northeast  Level Estimated
08:07AM 58.9529 20.6886 56° Northeast  Level Estimated
08:08AM 59.0241 20.8935 56° Northeast  Level Estimated
08:09AM 59.0961 21.1026 56° Northeast  Level Estimated
08:10AM 59.1679 21.3126 56° Northeast  Level Estimated
08:11AM 59.2393 21.5234 56° Northeast  Level Estimated
08:12AM 59.3103 21.7351 57° Northeast  Level Estimated
08:13AM 59.3810 21.9478 57° Northeast  Level Estimated
08:14AM 59.4513 22.1613 57° Northeast  Level Estimated
08:15AM 59.5213 22.3757 57° Northeast  Level Estimated
08:16AM 59.5910 22.5909 57° Northeast  Level Estimated
08:17AM 59.6603 22.8071 58° Northeast  Level Estimated
08:18AM 59.7292 23.0242 58° Northeast  Level Estimated
08:19AM 59.7978 23.2421 58° Northeast  Level Estimated
08:20AM 59.8660 23.4610 58° Northeast  Level Estimated
08:21AM 59.9338 23.6807 58° Northeast  Level Estimated
08:22AM 60.0013 23.9014 58° Northeast  Level Estimated
08:23AM 60.0684 24.1229 59° Northeast  Level Estimated
08:24AM 60.1352 24.3454 59° Northeast  Level Estimated
08:25AM 60.2015 24.5688 59° Northeast  Level Estimated
08:26AM 60.2675 24.7930 59° Northeast  Level Estimated
08:27AM 60.3172 24.9633 59° Northeast  Level Estimated
08:28AM 60.3172 24.9633 37° Northeast  Level Estimated
08:29AM 60.3172 24.9633 37° Northeast  Level Estimated
08:30AM 60.3172 24.9633 37° Northeast  Level Estimated
08:31AM 60.3172 24.9633 37° Northeast  Level Estimated
08:32AM 60.3172 24.9633 37° Northeast  Level Estimated
08:33AM 60.3172 24.9633 37° Northeast  Level Estimated
08:34AM 60.3172 24.9633 37° Northeast  Level Estimated
08:35AM 60.3172 24.9633 37° Northeast  Level Estimated
08:36AM 60.3172 24.9633 37° Northeast  Level Estimated
08:37AM 60.3172 24.9633 37° Northeast  Level Estimated
08:38AM 60.3172 24.9633 37° Northeast  Level Estimated
08:39AM 60.3172 24.9633 37° Northeast  Level Estimated